createdAt,value
2023-06-27T00:01:20.213Z,7.53
2023-06-27T00:03:50.545Z,8.03
2023-06-27T00:06:20.535Z,10.30
2023-06-27T00:08:49.805Z,6.57
2023-06-27T00:11:19.001Z,9.20
2023-06-27T00:16:17.277Z,7.15
2023-06-27T00:18:47.458Z,8.43
2023-06-27T00:21:19.293Z,11.83
2023-06-27T00:23:48.910Z,10.00
2023-06-27T00:26:16.791Z,9.87
2023-06-27T00:28:45.869Z,12.33
2023-06-27T00:31:14.271Z,10.97
2023-06-27T00:33:42.953Z,10.33
2023-06-27T00:36:14.271Z,9.90
2023-06-27T00:38:42.567Z,9.07
2023-06-27T00:41:11.049Z,13.63
2023-06-27T00:43:39.096Z,12.50
2023-06-27T00:46:09.037Z,13.70
2023-06-27T00:48:38.632Z,9.90
2023-06-27T00:51:08.440Z,12.67
2023-06-27T00:53:36.480Z,10.80
2023-06-27T00:56:05.351Z,11.57
2023-06-27T00:58:34.196Z,12.50
2023-06-27T01:01:03.819Z,12.03
2023-06-27T01:03:35.177Z,11.63
2023-06-27T01:06:05.444Z,15.70
2023-06-27T01:08:35.499Z,11.70
2023-06-27T01:11:11.527Z,10.67
2023-06-27T01:13:41.447Z,12.47
2023-06-27T01:16:10.349Z,12.13
2023-06-27T01:18:39.422Z,10.37
2023-06-27T01:21:10.641Z,15.87
2023-06-27T01:23:43.348Z,12.03
2023-06-27T01:26:11.843Z,12.77
2023-06-27T01:28:40.136Z,11.20
2023-06-27T01:31:08.161Z,11.93
2023-06-27T01:33:47.547Z,13.40
2023-06-27T01:36:17.556Z,13.03
2023-06-27T01:38:47.261Z,12.90
2023-06-27T01:41:17.309Z,12.50
2023-06-27T01:43:46.538Z,12.47
2023-06-27T01:48:45.985Z,11.30
2023-06-27T01:51:15.290Z,12.10
2023-06-27T01:53:43.236Z,13.00
2023-06-27T01:56:11.166Z,12.07
2023-06-27T01:58:39.128Z,13.03
2023-06-27T02:01:07.728Z,16.77
2023-06-27T02:03:36.346Z,12.40
2023-06-27T02:06:04.961Z,11.07
2023-06-27T02:08:32.855Z,13.57
2023-06-27T02:11:01.820Z,14.97
2023-06-27T02:13:29.759Z,13.40
2023-06-27T02:15:57.672Z,12.00
2023-06-27T02:18:25.565Z,15.73
2023-06-27T02:20:53.598Z,11.20
2023-06-27T02:23:22.524Z,13.23
2023-06-27T02:25:50.395Z,14.63
2023-06-27T02:28:18.748Z,12.67
2023-06-27T02:30:47.023Z,13.90
2023-06-27T02:33:15.471Z,11.13
2023-06-27T02:35:44.043Z,12.30
2023-06-27T02:38:11.964Z,11.03
2023-06-27T02:40:40.511Z,11.47
2023-06-27T02:43:08.471Z,12.90
2023-06-27T02:45:38.068Z,16.57
2023-06-27T02:48:08.100Z,13.23
2023-06-27T02:50:36.074Z,11.80
2023-06-27T02:53:04.595Z,11.93
2023-06-27T02:55:33.155Z,15.97
2023-06-27T02:58:01.829Z,13.70
2023-06-27T03:00:30.185Z,13.47
2023-06-27T03:02:58.776Z,12.03
2023-06-27T03:05:26.664Z,13.17
2023-06-27T03:07:54.717Z,12.83
2023-06-27T03:10:22.612Z,15.03
2023-06-27T03:12:50.668Z,17.33
2023-06-27T03:15:19.026Z,10.77
2023-06-27T03:17:47.597Z,12.37
2023-06-27T03:20:16.146Z,12.53
2023-06-27T03:22:45.116Z,14.43
2023-06-27T03:25:13.618Z,11.43
2023-06-27T03:27:41.997Z,11.43
2023-06-27T03:30:11.581Z,10.87
2023-06-27T03:32:39.997Z,11.63
2023-06-27T03:35:08.548Z,14.40
2023-06-27T03:37:37.763Z,10.53
2023-06-27T03:40:06.832Z,10.13
2023-06-27T03:45:02.987Z,15.35
2023-06-27T03:49:58.710Z,16.48
2023-06-27T03:52:27.296Z,12.83
2023-06-27T03:54:55.989Z,10.17
2023-06-27T03:57:24.052Z,13.67
2023-06-27T03:59:52.451Z,11.57
2023-06-27T04:02:20.393Z,11.00
2023-06-27T04:04:48.406Z,8.43
2023-06-27T04:07:16.547Z,10.07
2023-06-27T04:09:45.731Z,8.27
2023-06-27T04:12:13.638Z,8.10
2023-06-27T04:14:41.593Z,10.57
2023-06-27T04:17:10.088Z,8.73
2023-06-27T04:19:38.113Z,9.87
2023-06-27T04:22:06.859Z,8.80
2023-06-27T04:24:35.508Z,8.17
2023-06-27T04:27:04.142Z,7.70
2023-06-27T04:29:32.031Z,6.93
2023-06-27T04:32:00.544Z,7.37
2023-06-27T04:34:29.497Z,6.63
2023-06-27T04:39:25.090Z,7.72
2023-06-27T04:41:53.666Z,8.37
2023-06-27T04:44:23.210Z,5.60
2023-06-27T04:46:51.826Z,9.40
2023-06-27T04:49:20.474Z,6.93
2023-06-27T04:51:49.026Z,6.83
2023-06-27T04:54:17.501Z,9.80
2023-06-27T04:56:46.005Z,9.27
2023-06-27T04:59:14.580Z,6.67
2023-06-27T05:05:08.861Z,13.23
2023-06-27T05:07:36.971Z,9.73
2023-06-27T05:10:05.438Z,5.63
2023-06-27T05:12:33.758Z,8.47
2023-06-27T05:15:02.539Z,7.53
2023-06-27T05:19:58.745Z,10.00
2023-06-27T05:22:27.600Z,7.03
2023-06-27T05:27:23.132Z,8.25
2023-06-27T05:29:51.900Z,8.33
2023-06-27T05:32:20.620Z,8.17
2023-06-27T05:34:49.939Z,7.63
2023-06-27T05:37:18.105Z,8.70
2023-06-27T05:39:46.677Z,7.93
2023-06-27T05:44:42.613Z,9.50
2023-06-27T05:47:11.091Z,9.87
2023-06-27T05:49:39.878Z,9.80
2023-06-27T05:52:08.560Z,9.07
2023-06-27T05:54:36.539Z,8.20
2023-06-27T05:57:05.787Z,9.50
2023-06-27T05:59:33.739Z,9.33
2023-06-27T06:02:02.359Z,11.00
2023-06-27T06:07:01.959Z,10.18
2023-06-27T06:09:32.041Z,9.80
2023-06-27T06:12:00.946Z,11.20
2023-06-27T06:14:29.516Z,10.03
2023-06-27T06:19:24.646Z,8.28
2023-06-27T06:21:53.108Z,9.83
2023-06-27T06:24:21.083Z,7.63
2023-06-27T06:26:49.660Z,8.20
2023-06-27T06:29:18.241Z,8.70
2023-06-27T06:34:14.566Z,7.28
2023-06-27T06:39:10.002Z,9.80
2023-06-27T06:41:38.528Z,8.77
2023-06-27T06:44:06.983Z,8.67
2023-06-27T06:46:37.142Z,7.63
2023-06-27T06:49:05.894Z,8.30
2023-06-27T06:51:34.146Z,9.33
2023-06-27T06:54:02.437Z,8.10
2023-06-27T06:56:30.924Z,11.07
2023-06-27T06:58:58.969Z,15.57
2023-06-27T07:01:29.166Z,9.40
2023-06-27T07:03:58.215Z,12.90
2023-06-27T07:06:26.678Z,11.17
2023-06-27T07:08:55.695Z,12.83
2023-06-27T07:11:24.274Z,10.63
2023-06-27T07:13:53.475Z,9.27
2023-06-27T07:16:22.186Z,11.47
2023-06-27T07:21:17.656Z,9.13
2023-06-27T07:23:45.768Z,10.10
2023-06-27T07:26:14.260Z,7.83
2023-06-27T07:28:42.834Z,11.73
2023-06-27T07:31:11.520Z,8.40
2023-06-27T07:38:34.094Z,9.53
2023-06-27T07:41:02.786Z,10.03
2023-06-27T07:45:58.281Z,8.68
2023-06-27T07:48:26.782Z,11.30
2023-06-27T07:50:54.761Z,9.97
2023-06-27T07:53:23.235Z,8.83
2023-06-27T07:55:51.822Z,9.20
2023-06-27T07:58:19.789Z,7.77
2023-06-27T08:00:48.138Z,9.97
2023-06-27T08:03:16.845Z,7.87
2023-06-27T08:05:45.357Z,6.67
2023-06-27T08:08:14.026Z,7.97
2023-06-27T08:13:11.157Z,9.95
2023-06-27T08:15:39.772Z,9.30
2023-06-27T08:18:08.205Z,5.63
2023-06-27T08:20:36.673Z,8.30
2023-06-27T08:23:04.983Z,8.97
2023-06-27T08:25:33.738Z,7.47
2023-06-27T08:28:02.501Z,8.90
2023-06-27T08:32:58.261Z,7.37
2023-06-27T08:35:29.940Z,8.50
2023-06-27T08:37:56.819Z,6.10
2023-06-27T08:40:26.863Z,7.07
2023-06-27T08:42:55.641Z,6.80
2023-06-27T08:47:51.523Z,7.47
2023-06-27T08:52:49.757Z,7.40
2023-06-27T08:55:22.523Z,9.27
2023-06-27T08:57:52.258Z,7.67
2023-06-27T09:00:23.288Z,7.73
2023-06-27T09:02:52.698Z,5.40
2023-06-27T09:05:21.724Z,6.57
2023-06-27T09:07:50.855Z,8.03
2023-06-27T09:10:20.221Z,6.53
2023-06-27T09:12:50.333Z,8.53
2023-06-27T09:15:19.356Z,7.67
2023-06-27T09:17:47.861Z,6.17
2023-06-27T09:20:19.462Z,5.90
2023-06-27T09:22:48.366Z,7.47
2023-06-27T09:25:22.879Z,7.57
2023-06-27T09:27:53.210Z,6.13
2023-06-27T09:30:22.214Z,5.90
2023-06-27T09:32:55.403Z,7.57
2023-06-27T09:40:29.289Z,5.23
2023-06-27T09:42:58.141Z,7.13
2023-06-27T09:45:28.349Z,6.40
2023-06-27T09:47:56.972Z,5.87
2023-06-27T09:52:56.162Z,4.25
2023-06-27T09:55:25.472Z,4.87
2023-06-27T09:57:54.638Z,4.93
2023-06-27T10:00:24.369Z,6.57
2023-06-27T10:02:53.714Z,4.97
2023-06-27T10:05:24.388Z,4.07
2023-06-27T10:07:55.564Z,7.10
2023-06-27T10:10:25.442Z,7.20
2023-06-27T10:12:54.908Z,6.27
2023-06-27T10:15:23.764Z,6.17
2023-06-27T10:17:52.506Z,5.43
2023-06-27T10:22:51.187Z,4.90
2023-06-27T10:25:20.719Z,7.13
2023-06-27T10:27:49.524Z,6.33
2023-06-27T10:30:22.446Z,4.57
2023-06-27T10:32:51.034Z,4.23
2023-06-27T10:40:13.978Z,6.05
2023-06-27T10:42:43.646Z,5.40
2023-06-27T10:45:13.041Z,6.50
2023-06-27T10:47:43.901Z,6.83
2023-06-27T10:50:14.368Z,6.53
2023-06-27T10:52:45.214Z,4.30
2023-06-27T10:55:20.347Z,5.87
2023-06-27T10:57:52.290Z,9.17
2023-06-27T11:00:26.007Z,4.43
2023-06-27T11:02:57.467Z,5.10
2023-06-27T11:05:41.017Z,5.53
2023-06-27T11:08:13.817Z,5.20
2023-06-27T11:10:44.911Z,5.67
2023-06-27T11:13:17.802Z,4.00
2023-06-27T11:15:48.331Z,3.87
2023-06-27T11:18:17.429Z,4.37
2023-06-27T11:20:46.520Z,4.47
2023-06-27T11:23:17.133Z,6.10
2023-06-27T11:25:46.642Z,4.93
2023-06-27T11:28:17.430Z,4.90
2023-06-27T11:30:46.589Z,4.60
2023-06-27T11:33:16.599Z,6.00
2023-06-27T11:35:45.910Z,5.97
2023-06-27T11:38:14.683Z,4.73
2023-06-27T11:43:11.621Z,5.20
2023-06-27T11:45:43.308Z,4.90
2023-06-27T11:48:11.927Z,5.27
2023-06-27T11:50:41.628Z,5.23
2023-06-27T11:53:12.033Z,4.77
2023-06-27T11:55:42.152Z,4.20
2023-06-27T11:58:10.871Z,4.53
2023-06-27T12:00:42.395Z,4.90
2023-06-27T12:03:11.242Z,5.83
2023-06-27T12:05:41.329Z,4.83
2023-06-27T12:08:10.314Z,6.13
2023-06-27T12:10:56.753Z,5.07
2023-06-27T12:13:31.782Z,4.23
2023-06-27T12:16:00.314Z,4.83
2023-06-27T12:18:29.184Z,3.80
2023-06-27T12:20:58.100Z,4.70
2023-06-27T12:23:28.323Z,4.87
2023-06-27T12:25:57.163Z,4.97
2023-06-27T12:28:28.026Z,3.60
2023-06-27T12:30:56.345Z,3.97
2023-06-27T12:33:24.346Z,6.27
2023-06-27T12:35:53.199Z,5.13
2023-06-27T12:38:22.266Z,5.67
2023-06-27T12:40:50.983Z,5.23
2023-06-27T12:45:48.140Z,3.52
2023-06-27T12:48:16.560Z,5.33
2023-06-27T12:50:45.401Z,5.53
2023-06-27T12:53:13.383Z,5.50
2023-06-27T12:55:41.950Z,3.70
2023-06-27T12:58:10.552Z,3.73
2023-06-27T13:00:43.761Z,3.80
2023-06-27T13:03:18.495Z,4.23
2023-06-27T13:05:42.839Z,4.67
2023-06-27T13:08:11.499Z,5.77
2023-06-27T13:10:40.573Z,4.20
2023-06-27T13:13:09.843Z,5.20
2023-06-27T13:15:42.266Z,4.40
2023-06-27T13:18:08.860Z,3.83
2023-06-27T13:20:37.787Z,4.43
2023-06-27T13:23:07.643Z,4.40
2023-06-27T13:25:36.443Z,6.03
2023-06-27T13:28:04.618Z,4.03
2023-06-27T13:30:32.621Z,3.83
2023-06-27T13:33:01.304Z,3.60
2023-06-27T13:35:30.665Z,4.53
2023-06-27T13:38:02.005Z,3.80
2023-06-27T13:40:30.195Z,3.77
2023-06-27T13:42:58.294Z,4.70
2023-06-27T13:45:26.660Z,4.27
2023-06-27T13:47:56.224Z,3.37
2023-06-27T13:50:24.994Z,4.50
2023-06-27T13:55:20.351Z,4.42
2023-06-27T13:57:50.691Z,4.40
2023-06-27T14:00:19.469Z,5.10
2023-06-27T14:05:16.047Z,4.70
2023-06-27T14:07:44.219Z,3.77
2023-06-27T14:10:13.463Z,5.13
2023-06-27T14:12:41.959Z,7.60
2023-06-27T14:15:10.217Z,4.73
2023-06-27T14:17:39.146Z,4.07
2023-06-27T14:20:09.998Z,4.17
2023-06-27T14:22:38.973Z,3.43
2023-06-27T14:25:07.677Z,3.73
2023-06-27T14:30:03.536Z,3.80
2023-06-27T14:32:32.314Z,4.83
2023-06-27T14:35:01.026Z,5.33
2023-06-27T14:39:56.626Z,4.08
2023-06-27T14:42:25.725Z,3.73
2023-06-27T14:44:54.330Z,3.60
2023-06-27T14:49:49.313Z,4.20
2023-06-27T14:52:18.235Z,4.30
2023-06-27T14:54:46.812Z,6.17
2023-06-27T14:57:17.006Z,4.80
2023-06-27T14:59:45.979Z,4.60
2023-06-27T15:02:14.633Z,5.57
2023-06-27T15:07:11.169Z,4.87
2023-06-27T15:09:40.073Z,4.27
2023-06-27T15:12:09.337Z,5.13
2023-06-27T15:14:38.247Z,6.63
2023-06-27T15:17:07.129Z,5.20
2023-06-27T15:19:36.030Z,4.70
2023-06-27T15:22:04.144Z,4.27
2023-06-27T15:24:32.987Z,4.63
2023-06-27T15:27:01.660Z,5.67
2023-06-27T15:31:57.617Z,4.60
2023-06-27T15:34:25.968Z,4.67
2023-06-27T15:36:56.670Z,6.20
2023-06-27T15:39:24.342Z,4.83
2023-06-27T15:41:52.441Z,5.37
2023-06-27T15:44:21.315Z,4.07
2023-06-27T15:46:50.533Z,4.57
2023-06-27T15:49:20.073Z,4.70
2023-06-27T15:51:49.149Z,6.30
2023-06-27T15:54:19.293Z,5.47
2023-06-27T15:56:48.254Z,4.60
2023-06-27T15:59:17.334Z,4.73
2023-06-27T16:01:46.249Z,4.80
2023-06-27T16:04:16.489Z,5.43
2023-06-27T16:06:45.466Z,5.23
2023-06-27T16:09:14.054Z,4.80
2023-06-27T16:11:42.611Z,6.27
2023-06-27T16:14:11.438Z,6.47
2023-06-27T16:16:41.132Z,5.63
2023-06-27T16:19:09.087Z,5.80
2023-06-27T16:21:39.526Z,7.27
2023-06-27T16:24:08.082Z,5.97
2023-06-27T16:26:37.021Z,5.83
2023-06-27T16:29:06.105Z,6.97
2023-06-27T16:31:35.729Z,5.97
2023-06-27T16:34:05.122Z,7.00
2023-06-27T16:36:34.099Z,5.53
2023-06-27T16:39:02.903Z,5.60
2023-06-27T16:43:59.142Z,5.22
2023-06-27T16:46:27.909Z,5.53
2023-06-27T16:48:56.079Z,7.80
2023-06-27T16:51:25.053Z,7.40
2023-06-27T16:53:53.067Z,4.57
2023-06-27T16:56:21.151Z,6.00
2023-06-27T16:58:49.914Z,5.70
2023-06-27T17:03:46.504Z,7.75
2023-06-27T17:06:14.537Z,6.27
2023-06-27T17:08:42.822Z,7.23
2023-06-27T17:11:11.614Z,7.10
2023-06-27T17:16:08.590Z,5.83
2023-06-27T17:18:37.140Z,6.30
2023-06-27T17:21:05.952Z,7.57
2023-06-27T17:23:34.308Z,5.93
2023-06-27T17:26:03.134Z,7.87
2023-06-27T17:28:31.364Z,6.70
2023-06-27T17:31:00.217Z,5.97
2023-06-27T17:35:57.184Z,7.78
2023-06-27T17:38:26.145Z,5.90
2023-06-27T17:40:55.317Z,8.93
2023-06-27T17:43:25.984Z,6.67
2023-06-27T17:45:55.747Z,5.80
2023-06-27T17:48:24.723Z,7.57
2023-06-27T17:50:53.469Z,6.33
2023-06-27T17:53:21.621Z,6.73
2023-06-27T17:55:49.707Z,7.90
2023-06-27T17:58:18.801Z,6.40
2023-06-27T18:00:47.638Z,7.07
2023-06-27T18:03:16.973Z,6.63
2023-06-27T18:05:45.784Z,8.77
2023-06-27T18:08:15.351Z,6.13
2023-06-27T18:10:44.728Z,7.53
2023-06-27T18:13:14.732Z,6.50
2023-06-27T18:15:45.686Z,8.13
2023-06-27T18:18:14.754Z,7.90
2023-06-27T18:20:44.284Z,8.17
2023-06-27T18:23:13.014Z,8.30
2023-06-27T18:25:42.247Z,6.40
2023-06-27T18:28:10.921Z,7.17
2023-06-27T18:30:39.296Z,9.13
2023-06-27T18:33:11.302Z,6.60
2023-06-27T18:35:40.162Z,7.47
2023-06-27T18:38:09.157Z,7.87
2023-06-27T18:40:38.390Z,9.50
2023-06-27T18:43:07.362Z,7.47
2023-06-27T18:45:35.455Z,6.43
2023-06-27T18:48:03.885Z,7.37
2023-06-27T18:50:32.169Z,8.23
2023-06-27T18:53:01.878Z,8.17
2023-06-27T18:55:30.696Z,9.23
2023-06-27T18:58:00.290Z,8.80
2023-06-27T19:00:29.562Z,10.33
2023-06-27T19:02:58.426Z,8.17
2023-06-27T19:05:27.482Z,8.37
2023-06-27T19:07:57.600Z,10.23
2023-06-27T19:10:25.775Z,9.33
2023-06-27T19:12:55.506Z,8.63
2023-06-27T19:15:23.630Z,8.07
2023-06-27T19:17:52.289Z,8.40
2023-06-27T19:20:21.748Z,8.23
2023-06-27T19:22:53.611Z,7.87
2023-06-27T19:25:21.680Z,8.93
2023-06-27T19:27:50.367Z,8.30
2023-06-27T19:30:18.524Z,9.20
2023-06-27T19:32:47.305Z,7.37
2023-06-27T19:35:16.580Z,8.83
2023-06-27T19:37:45.420Z,11.20
2023-06-27T19:40:13.591Z,9.83
2023-06-27T19:42:41.756Z,9.77
2023-06-27T19:45:10.752Z,9.73
2023-06-27T19:47:39.409Z,9.37
2023-06-27T19:52:35.801Z,7.70
2023-06-27T19:55:04.887Z,7.07
2023-06-27T19:57:33.438Z,11.63
2023-06-27T20:00:01.562Z,10.47
2023-06-27T20:02:30.372Z,10.43
2023-06-27T20:09:53.769Z,7.53
2023-06-27T20:12:22.505Z,8.53
2023-06-27T20:14:51.310Z,7.93
2023-06-27T20:17:20.178Z,8.03
2023-06-27T20:22:16.745Z,9.63
2023-06-27T20:24:45.437Z,9.13
2023-06-27T20:27:14.622Z,9.67
2023-06-27T20:29:43.326Z,9.13
2023-06-27T20:32:12.410Z,11.43
2023-06-27T20:34:41.212Z,10.13
2023-06-27T20:37:09.784Z,9.53
2023-06-27T20:39:38.781Z,8.77
2023-06-27T20:42:07.557Z,9.70
2023-06-27T20:44:36.553Z,10.23
2023-06-27T20:47:05.456Z,10.43
2023-06-27T20:52:02.316Z,11.68
2023-06-27T20:54:31.210Z,9.23
2023-06-27T20:59:27.970Z,8.35
2023-06-27T21:01:56.747Z,10.00
2023-06-27T21:04:26.151Z,8.97
2023-06-27T21:06:55.259Z,8.70
2023-06-27T21:09:24.354Z,9.07
2023-06-27T21:11:53.358Z,11.47
2023-06-27T21:14:22.543Z,9.77
2023-06-27T21:16:51.348Z,12.27
2023-06-27T21:19:19.914Z,8.33
2023-06-27T21:21:48.078Z,8.93
2023-06-27T21:24:16.372Z,10.57
2023-06-27T21:26:45.772Z,8.43
2023-06-27T21:29:14.468Z,9.20
2023-06-27T21:31:42.911Z,8.70
2023-06-27T21:34:12.082Z,9.53
2023-06-27T21:36:41.242Z,8.57
2023-06-27T21:39:09.699Z,8.27
2023-06-27T21:41:38.400Z,9.80
2023-06-27T21:44:06.547Z,9.77
2023-06-27T21:46:36.796Z,8.57
2023-06-27T21:49:05.787Z,10.07
2023-06-27T21:54:02.963Z,7.92
2023-06-27T21:56:31.738Z,9.57
2023-06-27T21:59:00.534Z,9.50
2023-06-27T22:01:29.120Z,9.80
2023-06-27T22:03:57.354Z,8.27
2023-06-27T22:06:38.260Z,9.73
2023-06-27T22:08:57.479Z,7.83
2023-06-27T22:11:25.877Z,9.07
2023-06-27T22:13:54.048Z,9.87
2023-06-27T22:16:23.186Z,9.07
2023-06-27T22:18:51.871Z,8.10
2023-06-27T22:21:21.516Z,10.60
2023-06-27T22:23:51.807Z,8.73
2023-06-27T22:26:20.490Z,11.53
2023-06-27T22:28:49.680Z,9.07
2023-06-27T22:31:18.544Z,11.70
2023-06-27T22:33:46.750Z,9.17
2023-06-27T22:36:15.852Z,11.37
2023-06-27T22:38:44.100Z,9.20
2023-06-27T22:41:12.920Z,9.03
2023-06-27T22:43:41.154Z,8.37
2023-06-27T22:46:09.764Z,9.40
2023-06-27T22:48:37.886Z,9.30
2023-06-27T22:51:07.033Z,7.70
2023-06-27T22:53:35.847Z,10.83
2023-06-27T22:56:04.172Z,10.13
2023-06-27T22:58:32.905Z,7.90
2023-06-27T23:01:01.941Z,8.83
2023-06-27T23:03:30.694Z,8.20
2023-06-27T23:05:59.469Z,8.03
2023-06-27T23:08:28.477Z,11.27
2023-06-27T23:10:56.871Z,10.43
2023-06-27T23:13:26.251Z,8.03
2023-06-27T23:15:55.059Z,9.70
2023-06-27T23:18:23.731Z,8.57
2023-06-27T23:20:52.515Z,9.40
2023-06-27T23:23:21.504Z,9.90
2023-06-27T23:28:16.925Z,12.60
2023-06-27T23:30:53.342Z,9.67
2023-06-27T23:33:22.388Z,8.47
2023-06-27T23:35:51.457Z,12.43
2023-06-27T23:40:47.622Z,10.80
2023-06-27T23:43:16.467Z,9.77
2023-06-27T23:45:45.338Z,10.23
2023-06-27T23:48:13.793Z,12.03
2023-06-27T23:50:42.622Z,9.20
2023-06-27T23:53:11.160Z,10.53
2023-06-27T23:55:39.304Z,9.97
2023-06-27T23:58:08.634Z,8.37
